createdAt,value
2019-03-06T00:00:09.919Z,3.57
2019-03-06T00:02:37.577Z,3.17
2019-03-06T00:05:05.730Z,3.80
2019-03-06T00:07:33.424Z,3.60
2019-03-06T00:10:01.036Z,3.93
2019-03-06T00:12:28.713Z,3.80
2019-03-06T00:14:56.374Z,3.40
2019-03-06T00:17:24.444Z,3.80
2019-03-06T00:19:55.125Z,3.70
2019-03-06T00:22:22.817Z,3.53
2019-03-06T00:24:50.736Z,3.87
2019-03-06T00:27:18.494Z,4.20
2019-03-06T00:29:46.484Z,3.80
2019-03-06T00:32:14.132Z,4.17
2019-03-06T00:34:41.826Z,4.00
2019-03-06T00:37:09.491Z,3.97
2019-03-06T00:39:59.198Z,4.43
2019-03-06T00:42:44.996Z,4.00
2019-03-06T00:45:13.357Z,4.60
2019-03-06T00:47:41.043Z,4.47
2019-03-06T00:50:08.685Z,4.57
2019-03-06T00:52:36.370Z,4.67
2019-03-06T00:55:04.586Z,5.87
2019-03-06T00:57:32.495Z,5.37
2019-03-06T01:00:00.252Z,4.90
2019-03-06T01:02:28.035Z,5.50
2019-03-06T01:04:55.720Z,5.10
2019-03-06T01:07:23.370Z,6.17
2019-03-06T01:09:51.109Z,5.90
2019-03-06T01:12:18.721Z,6.30
2019-03-06T01:14:46.435Z,6.43
2019-03-06T01:17:14.104Z,6.90
2019-03-06T01:19:41.726Z,7.67
2019-03-06T01:22:09.403Z,7.47
2019-03-06T01:24:37.267Z,7.73
2019-03-06T01:27:04.986Z,7.83
2019-03-06T01:29:32.652Z,8.10
2019-03-06T01:32:00.365Z,9.60
2019-03-06T01:34:40.514Z,9.03
2019-03-06T01:37:20.088Z,9.37
2019-03-06T01:39:53.777Z,8.63
2019-03-06T01:42:59.035Z,9.87
2019-03-06T01:45:26.731Z,8.90
2019-03-06T01:47:54.386Z,9.47
2019-03-06T01:50:22.081Z,10.10
2019-03-06T01:52:49.728Z,10.40
2019-03-06T01:55:17.426Z,10.80
2019-03-06T01:57:45.065Z,10.93
2019-03-06T02:00:16.045Z,10.90
2019-03-06T02:02:43.795Z,11.50
2019-03-06T02:05:11.733Z,11.87
2019-03-06T02:07:40.182Z,11.50
2019-03-06T02:10:09.044Z,12.10
2019-03-06T02:12:36.713Z,13.03
2019-03-06T02:15:05.263Z,12.30
2019-03-06T02:17:33.082Z,12.07
2019-03-06T02:20:00.761Z,12.17
2019-03-06T02:22:28.411Z,13.13
2019-03-06T02:24:56.077Z,12.57
2019-03-06T02:27:23.748Z,12.97
2019-03-06T02:29:51.440Z,11.97
2019-03-06T02:32:19.098Z,13.17
2019-03-06T02:34:46.785Z,14.07
2019-03-06T02:37:14.472Z,13.43
2019-03-06T02:39:42.125Z,13.03
2019-03-06T02:42:09.780Z,13.53
2019-03-06T02:44:39.961Z,14.40
2019-03-06T02:47:06.947Z,13.77
2019-03-06T02:49:34.622Z,13.63
2019-03-06T02:52:02.295Z,13.53
2019-03-06T02:54:29.971Z,14.07
2019-03-06T02:56:57.623Z,13.43
2019-03-06T02:59:41.360Z,13.73
2019-03-06T03:02:13.743Z,13.47
2019-03-06T03:04:47.368Z,13.07
2019-03-06T03:07:17.160Z,15.00
2019-03-06T03:09:44.942Z,13.37
2019-03-06T03:12:12.596Z,12.87
2019-03-06T03:14:40.311Z,14.10
2019-03-06T03:17:07.902Z,13.73
2019-03-06T03:19:35.578Z,13.20
2019-03-06T03:22:03.476Z,14.10
2019-03-06T03:24:31.145Z,12.77
2019-03-06T03:26:58.802Z,13.40
2019-03-06T03:29:26.514Z,13.50
2019-03-06T03:31:54.176Z,14.47
2019-03-06T03:34:21.975Z,12.93
2019-03-06T03:36:49.813Z,13.93
2019-03-06T03:39:17.479Z,13.23
2019-03-06T03:41:45.187Z,13.60
2019-03-06T03:44:12.849Z,13.07
2019-03-06T03:46:40.554Z,14.00
2019-03-06T03:49:08.220Z,13.70
2019-03-06T03:51:35.906Z,14.10
2019-03-06T03:54:03.523Z,14.10
2019-03-06T03:56:31.262Z,13.90
2019-03-06T03:58:58.912Z,13.33
2019-03-06T04:01:26.593Z,14.10
2019-03-06T04:03:54.199Z,13.13
2019-03-06T04:06:21.951Z,11.77
2019-03-06T04:08:49.601Z,13.47
2019-03-06T04:11:19.120Z,13.93
2019-03-06T04:13:46.802Z,13.23
2019-03-06T04:16:14.519Z,12.93
2019-03-06T04:18:42.501Z,14.37
2019-03-06T04:21:10.164Z,13.30
2019-03-06T04:23:37.839Z,12.23
2019-03-06T04:26:05.561Z,12.07
2019-03-06T04:28:33.167Z,11.60
2019-03-06T04:31:00.856Z,12.40
2019-03-06T04:33:28.761Z,11.70
2019-03-06T04:35:56.473Z,11.67
2019-03-06T04:38:24.160Z,11.10
2019-03-06T04:40:51.845Z,12.20
2019-03-06T04:43:19.535Z,11.17
2019-03-06T04:45:47.209Z,11.40
2019-03-06T04:48:14.895Z,11.27
2019-03-06T04:50:42.565Z,11.47
2019-03-06T04:53:10.185Z,11.17
2019-03-06T04:55:37.894Z,11.13
2019-03-06T04:58:05.560Z,11.33
2019-03-06T05:00:33.537Z,10.93
2019-03-06T05:03:01.203Z,11.70
2019-03-06T05:05:28.945Z,11.40
2019-03-06T05:07:56.619Z,11.17
2019-03-06T05:10:24.301Z,11.33
2019-03-06T05:12:51.952Z,11.67
2019-03-06T05:15:19.887Z,11.20
2019-03-06T05:18:06.006Z,11.07
2019-03-06T05:20:33.739Z,11.07
2019-03-06T05:23:01.377Z,11.50
2019-03-06T05:25:29.296Z,10.73
2019-03-06T05:27:56.933Z,10.80
2019-03-06T05:30:25.905Z,9.83
2019-03-06T05:32:53.915Z,10.40
2019-03-06T05:36:27.500Z,10.30
2019-03-06T05:39:09.919Z,9.47
2019-03-06T05:41:37.723Z,10.97
2019-03-06T05:44:05.543Z,10.53
2019-03-06T05:46:33.231Z,9.97
2019-03-06T05:49:00.897Z,9.77
2019-03-06T05:51:28.573Z,9.43
2019-03-06T05:53:56.342Z,9.37
2019-03-06T05:56:24.048Z,9.47
2019-03-06T05:58:51.759Z,8.67
2019-03-06T06:01:19.418Z,8.23
2019-03-06T06:03:47.210Z,8.57
2019-03-06T06:06:14.898Z,8.03
2019-03-06T06:08:42.601Z,8.53
2019-03-06T06:11:10.345Z,7.90
2019-03-06T06:13:38.023Z,8.17
2019-03-06T06:16:05.632Z,8.20
2019-03-06T06:18:34.800Z,7.67
2019-03-06T06:21:21.928Z,7.10
2019-03-06T06:23:54.624Z,6.80
2019-03-06T06:26:22.873Z,6.47
2019-03-06T06:28:51.501Z,7.30
2019-03-06T06:31:19.470Z,6.83
2019-03-06T06:33:47.202Z,7.17
2019-03-06T06:36:14.949Z,6.47
2019-03-06T06:38:42.592Z,6.73
2019-03-06T06:41:10.360Z,7.03
2019-03-06T06:43:38.042Z,6.87
2019-03-06T06:46:07.536Z,6.20
2019-03-06T06:48:35.179Z,6.43
2019-03-06T06:51:51.113Z,7.03
2019-03-06T06:54:24.716Z,6.33
2019-03-06T06:57:35.282Z,6.60
2019-03-06T07:00:17.260Z,6.43
2019-03-06T07:03:43.530Z,7.27
2019-03-06T07:06:21.409Z,7.03
2019-03-06T07:09:01.400Z,7.10
2019-03-06T07:11:58.310Z,6.63
2019-03-06T07:14:51.600Z,7.53
2019-03-06T07:17:28.147Z,7.00
2019-03-06T07:20:30.800Z,7.60
2019-03-06T07:23:15.716Z,7.43
2019-03-06T07:25:55.603Z,7.00
2019-03-06T07:28:35.726Z,7.23
2019-03-06T07:31:13.465Z,6.90
2019-03-06T07:34:09.483Z,7.53
2019-03-06T07:36:56.655Z,6.50
2019-03-06T07:39:29.572Z,6.37
2019-03-06T07:42:12.310Z,7.00
2019-03-06T07:45:06.444Z,6.40
2019-03-06T07:47:42.356Z,6.83
2019-03-06T07:50:33.223Z,6.60
2019-03-06T07:53:50.004Z,6.60
2019-03-06T07:56:23.472Z,5.87
2019-03-06T07:58:55.680Z,5.90
2019-03-06T08:01:28.597Z,6.00
2019-03-06T08:04:14.533Z,5.70
2019-03-06T08:06:54.767Z,5.80
2019-03-06T08:09:22.435Z,5.40
2019-03-06T08:12:05.499Z,5.50
2019-03-06T08:14:53.924Z,5.23
2019-03-06T08:17:53.395Z,5.90
2019-03-06T08:20:43.311Z,5.30
2019-03-06T08:23:29.093Z,5.77
2019-03-06T08:25:56.753Z,5.40
2019-03-06T08:28:24.464Z,5.40
2019-03-06T08:30:55.627Z,4.33
2019-03-06T08:33:23.603Z,4.73
2019-03-06T08:35:51.335Z,4.17
2019-03-06T08:38:19.029Z,4.23
2019-03-06T08:40:46.795Z,4.17
2019-03-06T08:43:14.554Z,4.20
2019-03-06T08:46:10.970Z,4.10
2019-03-06T08:49:02.843Z,4.40
2019-03-06T08:51:36.793Z,3.80
2019-03-06T08:54:24.018Z,3.80
2019-03-06T08:57:01.082Z,3.67
2019-03-06T08:59:42.011Z,3.60
2019-03-06T09:02:34.926Z,3.63
2019-03-06T09:05:25.442Z,3.80
2019-03-06T09:07:58.738Z,3.43
2019-03-06T09:10:46.698Z,3.43
2019-03-06T09:13:27.125Z,2.97
2019-03-06T09:16:34.952Z,2.77
2019-03-06T09:19:25.012Z,3.27
2019-03-06T09:22:12.214Z,3.00
2019-03-06T09:25:08.620Z,3.23
2019-03-06T09:28:08.059Z,3.00
2019-03-06T09:30:55.523Z,3.50
2019-03-06T09:33:48.837Z,3.10
2019-03-06T09:36:45.100Z,2.83
2019-03-06T09:39:32.862Z,2.60
2019-03-06T09:42:35.409Z,2.67
2019-03-06T09:45:13.503Z,3.00
2019-03-06T09:48:09.826Z,2.10
2019-03-06T09:50:46.624Z,2.80
2019-03-06T09:53:40.899Z,2.70
2019-03-06T09:56:18.953Z,2.57
2019-03-06T09:59:02.784Z,2.20
2019-03-06T10:01:43.149Z,2.13
2019-03-06T10:04:45.637Z,2.47
2019-03-06T10:07:23.113Z,2.27
2019-03-06T10:10:01.816Z,2.27
2019-03-06T10:12:48.644Z,2.30
2019-03-06T10:15:51.156Z,2.20
2019-03-06T10:18:37.069Z,2.00
2019-03-06T10:21:04.756Z,1.97
2019-03-06T10:23:32.545Z,2.07
2019-03-06T10:26:00.226Z,2.10
2019-03-06T10:28:28.138Z,1.87
2019-03-06T10:31:02.290Z,2.10
2019-03-06T10:33:25.410Z,2.17
2019-03-06T10:35:53.664Z,2.33
2019-03-06T10:38:21.378Z,2.00
2019-03-06T10:40:49.138Z,2.27
2019-03-06T10:43:16.839Z,2.27
2019-03-06T10:45:44.508Z,2.10
2019-03-06T10:48:12.161Z,2.30
2019-03-06T10:50:39.855Z,2.07
2019-03-06T10:53:07.561Z,2.20
2019-03-06T10:55:35.390Z,2.03
2019-03-06T10:58:04.073Z,2.73
2019-03-06T11:00:34.994Z,2.07
2019-03-06T11:03:02.864Z,2.50
2019-03-06T11:05:34.269Z,2.23
2019-03-06T11:08:02.264Z,2.10
2019-03-06T11:10:32.766Z,2.23
2019-03-06T11:13:02.646Z,2.20
2019-03-06T11:15:30.667Z,2.30
2019-03-06T11:17:58.410Z,2.20
2019-03-06T11:20:28.766Z,2.17
2019-03-06T11:22:57.710Z,2.40
2019-03-06T11:25:26.342Z,2.33
2019-03-06T11:27:54.316Z,2.80
2019-03-06T11:30:34.552Z,2.33
2019-03-06T11:33:02.681Z,2.20
2019-03-06T11:35:30.546Z,2.30
2019-03-06T11:37:58.348Z,2.33
2019-03-06T11:40:26.536Z,2.20
2019-03-06T11:42:54.293Z,2.07
2019-03-06T11:45:22.137Z,2.50
2019-03-06T11:47:49.767Z,2.30
2019-03-06T11:50:17.868Z,2.30
2019-03-06T11:52:45.586Z,2.20
2019-03-06T11:55:14.391Z,2.07
2019-03-06T11:57:43.114Z,2.00
2019-03-06T12:00:21.679Z,2.23
2019-03-06T12:02:49.354Z,2.23
2019-03-06T12:05:17.549Z,2.57
2019-03-06T12:07:45.330Z,2.20
2019-03-06T12:10:13.796Z,2.00
2019-03-06T12:12:41.936Z,1.87
2019-03-06T12:15:10.565Z,2.30
2019-03-06T12:17:38.285Z,1.90
2019-03-06T12:20:08.376Z,2.30
2019-03-06T12:22:35.521Z,2.37
2019-03-06T12:25:05.261Z,2.20
2019-03-06T12:27:33.133Z,2.20
2019-03-06T12:30:00.875Z,2.00
2019-03-06T12:32:28.531Z,1.90
2019-03-06T12:34:56.186Z,2.00
2019-03-06T12:37:24.047Z,2.00
2019-03-06T12:39:51.827Z,2.20
2019-03-06T12:42:19.521Z,2.23
2019-03-06T12:44:47.247Z,2.30
2019-03-06T12:47:14.951Z,2.20
2019-03-06T12:49:42.695Z,2.00
2019-03-06T12:52:10.365Z,2.30
2019-03-06T12:54:38.063Z,1.87
2019-03-06T12:57:05.756Z,2.40
2019-03-06T12:59:33.461Z,2.00
2019-03-06T13:02:05.220Z,2.20
2019-03-06T13:04:32.860Z,2.53
2019-03-06T13:07:00.827Z,2.00
2019-03-06T13:09:28.541Z,2.20
2019-03-06T13:11:56.323Z,2.20
2019-03-06T13:14:24.326Z,2.23
2019-03-06T13:16:52.412Z,1.87
2019-03-06T13:19:20.074Z,2.10
2019-03-06T13:21:47.807Z,2.10
2019-03-06T13:24:15.824Z,2.10
2019-03-06T13:26:43.501Z,1.73
2019-03-06T13:29:11.176Z,2.10
2019-03-06T13:31:38.842Z,1.80
2019-03-06T13:34:21.906Z,2.53
2019-03-06T13:36:49.649Z,2.47
2019-03-06T13:39:17.351Z,1.90
2019-03-06T13:41:45.027Z,2.23
2019-03-06T13:44:13.063Z,2.10
2019-03-06T13:46:40.870Z,1.97
2019-03-06T13:49:08.679Z,2.30
2019-03-06T13:51:36.399Z,1.90
2019-03-06T13:54:04.463Z,1.83
2019-03-06T13:56:32.228Z,2.23
2019-03-06T13:58:59.918Z,2.27
2019-03-06T14:01:27.672Z,2.40
2019-03-06T14:03:55.383Z,2.20
2019-03-06T14:06:23.491Z,2.30
2019-03-06T14:08:51.244Z,1.93
2019-03-06T14:11:19.011Z,1.90
2019-03-06T14:13:49.514Z,2.00
2019-03-06T14:16:17.591Z,2.37
2019-03-06T14:18:45.483Z,2.00
2019-03-06T14:21:13.307Z,2.33
2019-03-06T14:23:41.014Z,2.13
2019-03-06T14:26:18.533Z,2.40
2019-03-06T14:28:46.425Z,2.23
2019-03-06T14:31:15.191Z,2.30
2019-03-06T14:33:42.944Z,2.00
2019-03-06T14:36:10.663Z,2.00
2019-03-06T14:38:38.473Z,2.43
2019-03-06T14:41:06.699Z,2.03
2019-03-06T14:43:34.406Z,2.70
2019-03-06T14:46:02.063Z,2.30
2019-03-06T14:48:29.806Z,2.20
2019-03-06T14:50:58.059Z,2.30
2019-03-06T14:53:25.885Z,2.40
2019-03-06T14:55:53.661Z,2.30
2019-03-06T14:58:21.393Z,2.40
2019-03-06T15:00:49.673Z,2.90
2019-03-06T15:03:17.861Z,2.63
2019-03-06T15:05:47.325Z,2.53
2019-03-06T15:08:15.172Z,2.30
2019-03-06T15:10:43.363Z,2.60
2019-03-06T15:13:11.241Z,2.73
2019-03-06T15:15:38.903Z,2.87
2019-03-06T15:18:10.603Z,2.20
2019-03-06T15:20:37.355Z,2.70
2019-03-06T15:23:05.454Z,2.43
2019-03-06T15:25:33.157Z,3.10
2019-03-06T15:28:01.031Z,2.90
2019-03-06T15:30:30.273Z,3.30
2019-03-06T15:32:57.998Z,2.83
2019-03-06T15:35:26.417Z,2.90
2019-03-06T15:37:54.245Z,2.80
2019-03-06T15:40:24.170Z,2.47
2019-03-06T15:42:52.054Z,2.80
2019-03-06T15:45:22.817Z,2.73
2019-03-06T15:47:50.658Z,2.53
2019-03-06T15:50:18.561Z,2.53
2019-03-06T15:52:46.496Z,2.40
2019-03-06T15:55:14.686Z,2.30
2019-03-06T15:57:42.458Z,2.40
2019-03-06T16:00:45.848Z,2.40
2019-03-06T16:03:07.705Z,2.70
2019-03-06T16:05:36.010Z,2.10
2019-03-06T16:08:04.701Z,2.40
2019-03-06T16:10:34.263Z,2.57
2019-03-06T16:13:05.593Z,2.80
2019-03-06T16:15:33.286Z,2.77
2019-03-06T16:18:01.905Z,2.60
2019-03-06T16:20:30.393Z,2.60
2019-03-06T16:22:58.135Z,2.80
2019-03-06T16:25:36.385Z,2.77
2019-03-06T16:27:57.562Z,2.27
2019-03-06T16:30:25.535Z,2.47
2019-03-06T16:32:53.320Z,2.37
2019-03-06T16:35:21.451Z,2.97
2019-03-06T16:37:49.338Z,2.57
2019-03-06T16:40:18.471Z,3.10
2019-03-06T16:42:47.420Z,2.93
2019-03-06T16:45:17.603Z,2.73
2019-03-06T16:47:45.410Z,2.83
2019-03-06T16:50:32.525Z,3.33
2019-03-06T16:53:00.337Z,3.20
2019-03-06T16:55:28.074Z,2.97
2019-03-06T16:57:56.525Z,3.50
2019-03-06T17:00:27.443Z,3.03
2019-03-06T17:02:56.368Z,3.27
2019-03-06T17:05:25.397Z,3.43
2019-03-06T17:07:53.838Z,3.00
2019-03-06T17:10:22.883Z,3.23
2019-03-06T17:12:51.106Z,3.40
2019-03-06T17:15:19.750Z,3.83
2019-03-06T17:17:47.430Z,3.83
2019-03-06T17:20:17.194Z,3.47
2019-03-06T17:22:45.728Z,3.57
2019-03-06T17:25:14.318Z,3.93
2019-03-06T17:27:41.964Z,4.10
2019-03-06T17:30:12.791Z,4.00
2019-03-06T17:32:54.625Z,4.37
2019-03-06T17:35:23.171Z,5.20
2019-03-06T17:37:51.196Z,4.20
2019-03-06T17:40:19.127Z,4.60
2019-03-06T17:42:46.771Z,5.07
2019-03-06T17:45:15.884Z,5.00
2019-03-06T17:47:43.647Z,5.23
2019-03-06T17:50:11.967Z,4.97
2019-03-06T17:52:39.691Z,4.60
2019-03-06T17:55:07.823Z,4.97
2019-03-06T17:57:35.451Z,5.00
2019-03-06T18:00:05.659Z,4.57
2019-03-06T18:02:33.373Z,4.70
2019-03-06T18:05:01.091Z,5.07
2019-03-06T18:07:28.931Z,5.03
2019-03-06T18:09:56.637Z,4.77
2019-03-06T18:12:24.446Z,5.20
2019-03-06T18:14:52.312Z,5.00
2019-03-06T18:17:19.988Z,4.90
2019-03-06T18:19:48.304Z,4.97
2019-03-06T18:22:15.947Z,5.00
2019-03-06T18:24:43.666Z,4.43
2019-03-06T18:27:11.276Z,4.23
2019-03-06T18:29:38.983Z,4.63
2019-03-06T18:32:06.635Z,4.63
2019-03-06T18:34:34.278Z,4.00
2019-03-06T18:37:01.914Z,4.50
2019-03-06T18:39:29.550Z,4.63
2019-03-06T18:41:57.180Z,4.93
2019-03-06T18:44:26.975Z,4.50
2019-03-06T18:46:54.298Z,4.53
2019-03-06T18:49:22.108Z,5.40
2019-03-06T18:51:49.830Z,5.17
2019-03-06T18:54:17.516Z,5.13
2019-03-06T18:56:45.190Z,4.67
2019-03-06T18:59:12.804Z,4.50
2019-03-06T19:01:40.682Z,4.20
2019-03-06T19:04:08.498Z,5.00
2019-03-06T19:06:36.191Z,5.20
2019-03-06T19:09:05.474Z,4.93
2019-03-06T19:11:33.163Z,5.00
2019-03-06T19:14:01.099Z,5.23
2019-03-06T19:16:28.766Z,5.30
2019-03-06T19:18:56.389Z,4.60
2019-03-06T19:21:24.074Z,4.50
2019-03-06T19:23:53.973Z,4.47
2019-03-06T19:26:21.643Z,4.40
2019-03-06T19:28:49.314Z,5.00
2019-03-06T19:31:17.026Z,4.27
2019-03-06T19:33:44.712Z,4.00
2019-03-06T19:36:12.365Z,3.93
2019-03-06T19:38:40.039Z,4.37
2019-03-06T19:41:07.974Z,3.40
2019-03-06T19:43:35.643Z,3.97
2019-03-06T19:46:03.499Z,4.03
2019-03-06T19:48:31.255Z,3.93
2019-03-06T19:50:58.959Z,3.67
2019-03-06T19:53:26.659Z,3.60
2019-03-06T19:55:54.385Z,4.00
2019-03-06T19:58:22.005Z,4.00
2019-03-06T20:00:49.680Z,3.90
2019-03-06T20:03:19.935Z,3.70
2019-03-06T20:05:48.532Z,4.40
2019-03-06T20:08:16.318Z,4.40
2019-03-06T20:10:44.226Z,3.97
2019-03-06T20:13:11.892Z,3.90
2019-03-06T20:15:39.582Z,4.63
2019-03-06T20:18:07.326Z,4.40
2019-03-06T20:20:35.021Z,4.17
2019-03-06T20:23:02.773Z,4.43
2019-03-06T20:25:30.440Z,4.67
2019-03-06T20:27:58.274Z,5.70
2019-03-06T20:30:26.784Z,5.13
2019-03-06T20:32:56.924Z,4.90
2019-03-06T20:35:24.489Z,4.87
2019-03-06T20:37:54.222Z,5.40
2019-03-06T20:40:22.122Z,5.00
2019-03-06T20:42:50.014Z,5.10
2019-03-06T20:45:18.336Z,5.00
2019-03-06T20:47:45.999Z,6.00
2019-03-06T20:50:13.805Z,5.43
2019-03-06T20:52:41.759Z,6.17
2019-03-06T20:55:10.211Z,5.67
2019-03-06T20:57:37.876Z,5.47
2019-03-06T21:00:07.300Z,5.50
2019-03-06T21:02:36.299Z,5.80
2019-03-06T21:05:06.659Z,5.17
2019-03-06T21:07:44.882Z,5.70
2019-03-06T21:10:06.550Z,7.27
2019-03-06T21:12:34.410Z,6.37
2019-03-06T21:15:02.080Z,6.63
2019-03-06T21:17:30.001Z,6.10
2019-03-06T21:19:57.613Z,6.30
2019-03-06T21:22:25.298Z,6.37
2019-03-06T21:24:52.915Z,6.70
2019-03-06T21:27:20.619Z,6.20
2019-03-06T21:29:48.335Z,6.93
2019-03-06T21:32:16.080Z,6.90
2019-03-06T21:34:44.010Z,6.00
2019-03-06T21:37:11.672Z,6.20
2019-03-06T21:39:39.308Z,6.10
2019-03-06T21:42:06.981Z,6.77
2019-03-06T21:44:34.607Z,6.50
2019-03-06T21:47:02.310Z,6.47
2019-03-06T21:49:29.929Z,5.33
2019-03-06T21:51:57.907Z,6.87
2019-03-06T21:54:25.557Z,5.93
2019-03-06T21:56:53.206Z,5.90
2019-03-06T21:59:20.872Z,5.63
2019-03-06T22:01:48.545Z,6.20
2019-03-06T22:04:16.189Z,6.00
2019-03-06T22:06:43.880Z,5.73
2019-03-06T22:09:12.726Z,5.80
2019-03-06T22:11:40.395Z,5.37
2019-03-06T22:14:16.456Z,5.77
2019-03-06T22:16:44.193Z,5.27
2019-03-06T22:19:11.834Z,5.80
2019-03-06T22:21:39.567Z,6.27
2019-03-06T22:24:07.451Z,5.70
2019-03-06T22:26:35.114Z,6.70
2019-03-06T22:29:02.747Z,6.73
2019-03-06T22:31:30.400Z,6.50
2019-03-06T22:33:58.013Z,6.43
2019-03-06T22:36:25.678Z,6.93
2019-03-06T22:38:53.340Z,7.00
2019-03-06T22:41:21.016Z,6.57
2019-03-06T22:43:48.654Z,6.57
2019-03-06T22:46:16.346Z,6.97
2019-03-06T22:48:44.000Z,7.20
2019-03-06T22:51:11.690Z,7.60
2019-03-06T22:53:39.295Z,6.63
2019-03-06T22:56:06.997Z,7.80
2019-03-06T22:58:34.782Z,6.33
2019-03-06T23:01:17.141Z,7.00
2019-03-06T23:03:44.767Z,7.30
2019-03-06T23:06:12.472Z,6.80
2019-03-06T23:08:40.464Z,7.27
2019-03-06T23:11:08.388Z,7.13
2019-03-06T23:13:36.033Z,7.13
2019-03-06T23:16:05.641Z,6.80
2019-03-06T23:18:33.419Z,6.43
2019-03-06T23:21:02.130Z,6.43
2019-03-06T23:23:29.777Z,6.67
2019-03-06T23:25:57.692Z,6.67
2019-03-06T23:28:25.399Z,6.73
2019-03-06T23:30:53.015Z,7.33
2019-03-06T23:33:20.706Z,6.87
2019-03-06T23:35:48.345Z,6.83
2019-03-06T23:38:16.031Z,7.10
2019-03-06T23:40:43.744Z,7.10
2019-03-06T23:43:11.437Z,6.63
2019-03-06T23:45:39.058Z,7.17
2019-03-06T23:48:06.734Z,6.83
2019-03-06T23:50:34.351Z,6.00
2019-03-06T23:53:06.120Z,6.77
2019-03-06T23:55:33.753Z,6.90
2019-03-06T23:58:01.396Z,6.13
